createdAt,value
2018-01-14T00:01:03.357Z,4.80
2018-01-14T00:03:29.699Z,4.80
2018-01-14T00:05:56.136Z,4.80
2018-01-14T00:08:23.234Z,4.80
2018-01-14T00:10:49.587Z,4.80
2018-01-14T00:13:16.010Z,4.80
2018-01-14T00:15:43.129Z,4.80
2018-01-14T00:18:09.469Z,4.80
2018-01-14T00:20:35.863Z,4.80
2018-01-14T00:23:03.155Z,4.80
2018-01-14T00:25:29.521Z,4.80
2018-01-14T00:27:55.895Z,4.80
2018-01-14T00:30:22.243Z,4.80
2018-01-14T00:32:48.641Z,4.80
2018-01-14T00:35:15.016Z,4.90
2018-01-14T00:37:41.334Z,4.80
2018-01-14T00:40:07.807Z,4.80
2018-01-14T00:42:34.227Z,4.70
2018-01-14T00:45:00.599Z,4.80
2018-01-14T00:47:27.007Z,4.80
2018-01-14T00:49:53.385Z,4.90
2018-01-14T00:52:19.741Z,4.80
2018-01-14T00:54:46.078Z,4.80
2018-01-14T00:57:12.455Z,4.80
2018-01-14T00:59:38.820Z,4.70
2018-01-14T01:02:05.798Z,4.80
2018-01-14T01:04:32.132Z,4.90
2018-01-14T01:06:59.259Z,4.80
2018-01-14T01:09:25.638Z,4.80
2018-01-14T01:11:51.990Z,4.80
2018-01-14T01:14:18.382Z,4.90
2018-01-14T01:16:45.490Z,4.90
2018-01-14T01:19:11.874Z,4.90
2018-01-14T01:21:38.231Z,4.90
2018-01-14T01:24:04.997Z,4.90
2018-01-14T01:26:31.442Z,4.80
2018-01-14T01:28:57.790Z,4.70
2018-01-14T01:31:24.136Z,4.70
2018-01-14T01:33:50.487Z,4.70
2018-01-14T01:36:16.867Z,4.70
2018-01-14T01:38:43.258Z,4.80
2018-01-14T01:41:09.607Z,4.80
2018-01-14T01:43:36.291Z,4.80
2018-01-14T01:46:02.910Z,4.80
2018-01-14T01:48:29.366Z,4.80
2018-01-14T01:50:55.754Z,4.70
2018-01-14T01:53:22.109Z,4.80
2018-01-14T01:55:48.482Z,4.80
2018-01-14T01:58:14.827Z,4.70
2018-01-14T02:00:41.184Z,4.80
2018-01-14T02:03:07.534Z,4.70
2018-01-14T02:05:33.891Z,4.70
2018-01-14T02:08:00.214Z,4.80
2018-01-14T02:10:27.323Z,4.70
2018-01-14T02:12:53.691Z,4.60
2018-01-14T02:15:20.040Z,4.60
2018-01-14T02:17:46.384Z,4.70
2018-01-14T02:20:12.823Z,4.70
2018-01-14T02:22:39.313Z,4.60
2018-01-14T02:25:05.737Z,4.70
2018-01-14T02:27:32.103Z,4.60
2018-01-14T02:29:58.448Z,4.60
2018-01-14T02:32:24.758Z,4.60
2018-01-14T02:34:51.134Z,4.60
2018-01-14T02:37:17.471Z,4.50
2018-01-14T02:39:44.590Z,4.50
2018-01-14T02:42:10.992Z,4.50
2018-01-14T02:44:37.326Z,4.50
2018-01-14T02:47:03.963Z,4.50
2018-01-14T02:49:30.334Z,4.50
2018-01-14T02:51:56.922Z,4.50
2018-01-14T02:54:23.274Z,4.50
2018-01-14T02:56:50.370Z,4.50
2018-01-14T02:59:17.476Z,4.50
2018-01-14T03:01:43.822Z,4.40
2018-01-14T03:04:10.186Z,4.40
2018-01-14T03:06:36.562Z,4.40
2018-01-14T03:09:03.059Z,4.40
2018-01-14T03:11:29.457Z,4.40
2018-01-14T03:13:56.570Z,4.50
2018-01-14T03:16:23.702Z,4.40
2018-01-14T03:18:50.139Z,4.40
2018-01-14T03:21:16.462Z,4.40
2018-01-14T03:23:42.834Z,4.40
2018-01-14T03:26:09.183Z,4.30
2018-01-14T03:28:35.558Z,4.40
2018-01-14T03:31:01.949Z,4.30
2018-01-14T03:33:28.305Z,4.20
2018-01-14T03:35:54.684Z,4.30
2018-01-14T03:38:21.047Z,4.30
2018-01-14T03:40:48.182Z,4.30
2018-01-14T03:43:14.511Z,4.30
2018-01-14T03:45:40.847Z,4.30
2018-01-14T03:48:07.206Z,4.30
2018-01-14T03:50:34.398Z,4.20
2018-01-14T03:53:01.486Z,4.30
2018-01-14T03:55:27.882Z,4.20
2018-01-14T03:57:54.295Z,4.20
2018-01-14T04:00:20.629Z,4.20
2018-01-14T04:02:47.000Z,4.30
2018-01-14T04:05:13.331Z,4.20
2018-01-14T04:07:39.693Z,4.20
2018-01-14T04:10:06.459Z,4.10
2018-01-14T04:12:32.914Z,4.10
2018-01-14T04:14:59.247Z,4.10
2018-01-14T04:17:25.778Z,4.10
2018-01-14T04:19:52.135Z,4.10
2018-01-14T04:22:18.508Z,4.10
2018-01-14T04:24:45.633Z,4.00
2018-01-14T04:27:12.003Z,4.00
2018-01-14T04:29:38.400Z,4.00
2018-01-14T04:32:05.340Z,4.00
2018-01-14T04:34:32.533Z,3.90
2018-01-14T04:36:58.862Z,3.90
2018-01-14T04:39:25.215Z,4.00
2018-01-14T04:41:51.870Z,3.90
2018-01-14T04:44:18.283Z,3.80
2018-01-14T04:46:44.630Z,3.90
2018-01-14T04:49:10.970Z,3.90
2018-01-14T04:51:37.352Z,3.90
2018-01-14T04:54:03.998Z,3.90
2018-01-14T04:56:31.159Z,3.80
2018-01-14T04:58:57.518Z,3.40
2018-01-14T05:01:23.882Z,3.80
2018-01-14T05:03:50.246Z,3.80
2018-01-14T05:06:16.619Z,3.80
2018-01-14T05:08:43.010Z,3.70
2018-01-14T05:11:09.526Z,3.70
2018-01-14T05:13:36.635Z,3.60
2018-01-14T05:16:03.100Z,3.60
2018-01-14T05:18:29.496Z,3.70
2018-01-14T05:20:55.888Z,3.60
2018-01-14T05:23:22.270Z,3.50
2018-01-14T05:25:48.622Z,3.70
2018-01-14T05:28:14.984Z,3.40
2018-01-14T05:30:42.067Z,3.70
2018-01-14T05:33:08.442Z,3.70
2018-01-14T05:35:35.605Z,3.60
2018-01-14T05:38:01.990Z,3.60
2018-01-14T05:40:28.354Z,3.60
2018-01-14T05:42:54.702Z,3.70
2018-01-14T05:45:21.082Z,3.70
2018-01-14T05:47:47.450Z,3.70
2018-01-14T05:50:14.550Z,3.60
2018-01-14T05:52:40.930Z,3.60
2018-01-14T05:55:07.356Z,3.70
2018-01-14T05:57:33.739Z,3.70
2018-01-14T06:00:00.849Z,3.70
2018-01-14T06:02:27.186Z,3.60
2018-01-14T06:04:53.718Z,3.60
2018-01-14T06:07:20.095Z,3.60
2018-01-14T06:09:46.459Z,3.70
2018-01-14T06:12:12.955Z,3.70
2018-01-14T06:14:39.326Z,3.60
2018-01-14T06:17:06.202Z,3.70
2018-01-14T06:19:32.653Z,3.70
2018-01-14T06:21:59.106Z,3.70
2018-01-14T06:24:25.426Z,3.60
2018-01-14T06:26:52.891Z,3.60
2018-01-14T06:29:20.017Z,3.60
2018-01-14T06:31:46.383Z,3.60
2018-01-14T06:34:12.778Z,3.70
2018-01-14T06:36:39.171Z,3.70
2018-01-14T06:39:05.674Z,4.10
2018-01-14T06:41:32.786Z,3.60
2018-01-14T06:43:59.910Z,3.60
2018-01-14T06:46:26.294Z,3.60
2018-01-14T06:48:52.662Z,3.70
2018-01-14T06:51:19.094Z,3.60
2018-01-14T06:53:46.218Z,3.60
2018-01-14T06:56:12.723Z,3.60
2018-01-14T06:58:39.907Z,3.50
2018-01-14T07:01:07.180Z,3.50
2018-01-14T07:03:33.650Z,3.50
2018-01-14T07:06:00.975Z,3.60
2018-01-14T07:08:27.599Z,3.10
2018-01-14T07:10:54.227Z,3.50
2018-01-14T07:13:20.825Z,3.50
2018-01-14T07:15:48.273Z,3.50
2018-01-14T07:18:15.497Z,3.60
2018-01-14T07:20:43.002Z,3.50
2018-01-14T07:23:09.689Z,3.70
2018-01-14T07:25:36.369Z,3.50
2018-01-14T07:28:02.999Z,3.40
2018-01-14T07:30:29.603Z,3.50
2018-01-14T07:32:56.299Z,3.90
2018-01-14T07:35:22.827Z,3.60
2018-01-14T07:37:50.316Z,3.60
2018-01-14T07:40:17.546Z,3.50
2018-01-14T07:42:44.014Z,3.50
2018-01-14T07:45:10.641Z,3.60
2018-01-14T07:47:37.180Z,3.60
2018-01-14T07:50:04.319Z,3.60
2018-01-14T07:52:30.907Z,3.50
2018-01-14T07:54:57.372Z,3.50
2018-01-14T07:57:23.926Z,3.60
2018-01-14T07:59:50.435Z,3.50
2018-01-14T08:02:16.981Z,3.40
2018-01-14T08:04:43.509Z,3.30
2018-01-14T08:07:11.411Z,3.20
2018-01-14T08:09:37.879Z,3.10
2018-01-14T08:12:06.928Z,3.10
2018-01-14T08:14:33.489Z,3.10
2018-01-14T08:17:00.308Z,3.00
2018-01-14T08:19:26.867Z,3.00
2018-01-14T08:21:53.382Z,2.90
2018-01-14T08:24:19.827Z,2.90
2018-01-14T08:26:46.283Z,3.00
2018-01-14T08:29:12.757Z,3.00
2018-01-14T08:31:39.990Z,3.10
2018-01-14T08:34:06.979Z,3.10
2018-01-14T08:36:33.535Z,3.10
2018-01-14T08:39:00.043Z,3.20
2018-01-14T08:41:26.566Z,3.30
2018-01-14T08:43:53.414Z,3.30
2018-01-14T08:46:20.592Z,3.40
2018-01-14T08:48:47.998Z,3.30
2018-01-14T08:51:15.291Z,3.40
2018-01-14T08:53:42.027Z,3.40
2018-01-14T08:56:10.089Z,3.40
2018-01-14T08:58:37.539Z,3.40
2018-01-14T09:01:04.220Z,3.40
2018-01-14T09:03:30.894Z,3.40
2018-01-14T09:05:57.730Z,3.40
2018-01-14T09:08:24.190Z,3.40
2018-01-14T09:10:52.610Z,3.40
2018-01-14T09:13:19.798Z,3.40
2018-01-14T09:15:46.312Z,3.40
2018-01-14T09:18:13.545Z,3.40
2018-01-14T09:20:39.995Z,3.40
2018-01-14T09:23:06.483Z,3.40
2018-01-14T09:25:32.951Z,3.10
2018-01-14T09:27:59.481Z,3.50
2018-01-14T09:30:40.375Z,3.60
2018-01-14T09:33:09.058Z,3.60
2018-01-14T09:35:35.673Z,3.70
2018-01-14T09:38:02.421Z,3.70
2018-01-14T09:40:28.885Z,3.80
2018-01-14T09:42:55.346Z,3.80
2018-01-14T09:45:21.854Z,3.80
2018-01-14T09:47:48.391Z,3.90
2018-01-14T09:50:14.843Z,4.00
2018-01-14T09:52:41.443Z,4.00
2018-01-14T09:55:07.939Z,4.00
2018-01-14T09:57:34.459Z,4.10
2018-01-14T10:00:01.039Z,4.10
2018-01-14T10:02:27.635Z,4.10
2018-01-14T10:04:54.208Z,4.20
2018-01-14T10:07:22.400Z,4.20
2018-01-14T10:09:49.755Z,4.20
2018-01-14T10:12:16.332Z,4.00
2018-01-14T10:14:42.970Z,4.20
2018-01-14T10:17:09.553Z,4.40
2018-01-14T10:19:36.079Z,4.30
2018-01-14T10:22:02.956Z,4.20
2018-01-14T10:24:29.666Z,4.20
2018-01-14T10:26:56.210Z,4.00
2018-01-14T10:29:22.801Z,3.70
2018-01-14T10:31:50.703Z,4.00
2018-01-14T10:34:17.165Z,4.00
2018-01-14T10:36:44.411Z,4.10
2018-01-14T10:39:10.867Z,4.00
2018-01-14T10:41:37.419Z,4.20
2018-01-14T10:44:05.131Z,4.30
2018-01-14T10:46:31.617Z,4.30
2018-01-14T10:48:58.140Z,4.50
2018-01-14T10:51:24.654Z,4.70
2018-01-14T10:53:51.170Z,4.80
2018-01-14T10:56:18.696Z,4.90
2018-01-14T10:58:45.729Z,5.00
2018-01-14T11:01:12.255Z,5.00
2018-01-14T11:03:40.743Z,5.00
2018-01-14T11:06:07.945Z,5.00
2018-01-14T11:08:35.189Z,5.00
2018-01-14T11:11:02.055Z,5.10
2018-01-14T11:13:28.536Z,5.10
2018-01-14T11:15:56.408Z,5.20
2018-01-14T11:18:22.992Z,5.20
2018-01-14T11:20:49.559Z,5.20
2018-01-14T11:23:16.091Z,5.20
2018-01-14T11:25:42.615Z,5.30
2018-01-14T11:28:09.163Z,5.30
2018-01-14T11:30:35.655Z,5.20
2018-01-14T11:33:02.269Z,5.10
2018-01-14T11:35:28.783Z,5.20
2018-01-14T11:37:55.286Z,5.20
2018-01-14T11:40:22.083Z,5.30
2018-01-14T11:42:49.328Z,5.40
2018-01-14T11:45:15.764Z,5.30
2018-01-14T11:47:42.276Z,5.50
2018-01-14T11:50:08.778Z,5.50
2018-01-14T11:52:35.279Z,5.50
2018-01-14T11:55:01.864Z,5.50
2018-01-14T11:57:28.367Z,5.50
2018-01-14T11:59:55.230Z,5.50
2018-01-14T12:02:22.662Z,5.50
2018-01-14T12:04:49.056Z,5.90
2018-01-14T12:07:15.834Z,5.60
2018-01-14T12:09:43.003Z,5.60
2018-01-14T12:12:09.500Z,5.70
2018-01-14T12:14:36.739Z,5.80
2018-01-14T12:17:03.323Z,5.80
2018-01-14T12:19:29.935Z,5.80
2018-01-14T12:21:56.445Z,5.80
2018-01-14T12:24:22.962Z,5.90
2018-01-14T12:26:49.421Z,5.90
2018-01-14T12:29:15.998Z,5.90
2018-01-14T12:31:43.594Z,5.80
2018-01-14T12:37:09.793Z,5.80
2018-01-14T12:39:36.390Z,5.80
2018-01-14T12:42:03.378Z,5.80
2018-01-14T12:44:31.221Z,5.70
2018-01-14T12:46:57.794Z,5.60
2018-01-14T12:49:24.208Z,5.60
2018-01-14T12:51:50.767Z,5.60
2018-01-14T12:54:17.353Z,5.60
2018-01-14T12:56:43.882Z,5.60
2018-01-14T12:59:10.594Z,5.60
2018-01-14T13:01:37.141Z,5.60
2018-01-14T13:04:04.288Z,5.70
2018-01-14T13:06:30.932Z,5.70
2018-01-14T13:08:57.892Z,5.70
2018-01-14T13:11:25.164Z,5.70
2018-01-14T13:13:52.562Z,5.70
2018-01-14T13:16:19.997Z,5.60
2018-01-14T13:18:47.313Z,5.60
2018-01-14T13:21:13.976Z,5.60
2018-01-14T13:23:40.617Z,5.60
2018-01-14T13:26:08.473Z,5.60
2018-01-14T13:28:35.221Z,5.60
2018-01-14T13:31:02.199Z,5.70
2018-01-14T13:33:28.935Z,5.70
2018-01-14T13:35:55.503Z,5.70
2018-01-14T13:38:23.053Z,5.70
2018-01-14T13:40:49.931Z,5.70
2018-01-14T13:43:16.466Z,5.80
2018-01-14T13:45:44.399Z,5.60
2018-01-14T13:48:11.001Z,5.60
2018-01-14T13:50:37.613Z,5.60
2018-01-14T13:53:04.443Z,5.50
2018-01-14T13:55:31.149Z,5.40
2018-01-14T13:57:57.657Z,5.40
2018-01-14T14:00:24.602Z,5.50
2018-01-14T14:02:51.862Z,5.40
2018-01-14T14:05:18.508Z,5.40
2018-01-14T14:07:45.207Z,5.40
2018-01-14T14:10:12.679Z,5.40
2018-01-14T14:12:39.387Z,5.40
2018-01-14T14:15:06.164Z,5.50
2018-01-14T14:17:32.800Z,5.60
2018-01-14T14:20:00.392Z,5.50
2018-01-14T14:22:27.354Z,5.50
2018-01-14T14:24:54.105Z,5.40
2018-01-14T14:27:20.961Z,5.20
2018-01-14T14:29:49.911Z,5.20
2018-01-14T14:32:16.744Z,5.10
2018-01-14T14:34:45.064Z,5.00
2018-01-14T14:37:12.184Z,5.00
2018-01-14T14:39:38.877Z,5.10
2018-01-14T14:42:07.129Z,5.00
2018-01-14T14:44:34.787Z,4.90
2018-01-14T14:47:02.584Z,4.90
2018-01-14T14:49:30.009Z,4.90
2018-01-14T14:51:56.661Z,4.90
2018-01-14T14:54:23.562Z,4.90
2018-01-14T14:56:50.294Z,4.80
2018-01-14T14:59:16.871Z,4.80
2018-01-14T15:01:43.645Z,4.60
2018-01-14T15:07:03.865Z,4.40
2018-01-14T15:09:31.303Z,4.30
2018-01-14T15:11:58.075Z,4.30
2018-01-14T15:14:25.055Z,4.20
2018-01-14T15:16:52.371Z,4.20
2018-01-14T15:19:19.675Z,4.10
2018-01-14T15:21:46.845Z,4.00
2018-01-14T15:24:13.566Z,4.10
2018-01-14T15:26:42.024Z,4.00
2018-01-14T15:29:09.367Z,3.80
2018-01-14T15:31:36.007Z,3.80
2018-01-14T15:34:04.359Z,3.60
2018-01-14T15:36:31.413Z,3.50
2018-01-14T15:38:58.042Z,3.50
2018-01-14T15:41:25.068Z,3.20
2018-01-14T15:43:51.958Z,3.20
2018-01-14T15:46:19.410Z,3.00
2018-01-14T15:48:47.514Z,2.90
2018-01-14T15:51:14.261Z,2.80
2018-01-14T15:53:40.750Z,2.80
2018-01-14T15:56:07.598Z,2.50
2018-01-14T15:58:34.320Z,2.70
2018-01-14T16:01:01.219Z,2.90
2018-01-14T16:03:28.781Z,2.50
2018-01-14T16:05:55.603Z,2.70
2018-01-14T16:08:24.426Z,2.70
2018-01-14T16:10:51.057Z,2.60
2018-01-14T16:13:19.349Z,2.70
2018-01-14T16:15:46.079Z,2.80
2018-01-14T16:18:12.780Z,2.70
2018-01-14T16:20:40.865Z,2.50
2018-01-14T16:23:07.745Z,2.40
2018-01-14T16:25:34.665Z,2.40
2018-01-14T16:28:01.296Z,3.40
2018-01-14T16:30:27.884Z,2.30
2018-01-14T16:32:55.127Z,2.20
2018-01-14T16:35:22.043Z,2.20
2018-01-14T16:37:48.724Z,2.20
2018-01-14T16:40:15.287Z,2.20
2018-01-14T16:42:41.811Z,2.10
2018-01-14T16:45:08.253Z,2.20
2018-01-14T16:47:34.725Z,2.10
2018-01-14T16:50:01.577Z,2.10
2018-01-14T16:52:28.950Z,2.00
2018-01-14T16:54:55.535Z,2.00
2018-01-14T16:57:22.065Z,1.90
2018-01-14T16:59:49.227Z,1.70
2018-01-14T17:02:15.781Z,1.70
2018-01-14T17:04:42.196Z,1.80
2018-01-14T17:07:09.446Z,1.80
2018-01-14T17:09:36.061Z,1.70
2018-01-14T17:12:02.947Z,1.80
2018-01-14T17:14:29.415Z,1.70
2018-01-14T17:16:56.996Z,1.70
2018-01-14T17:19:24.236Z,1.80
2018-01-14T17:21:50.765Z,1.70
2018-01-14T17:24:17.235Z,1.90
2018-01-14T17:26:44.181Z,1.80
2018-01-14T17:29:10.824Z,1.80
2018-01-14T17:31:37.601Z,1.90
2018-01-14T17:34:05.040Z,2.00
2018-01-14T17:36:32.640Z,2.00
2018-01-14T17:38:59.176Z,1.90
2018-01-14T17:41:26.502Z,2.00
2018-01-14T17:43:52.959Z,2.00
2018-01-14T17:46:19.757Z,1.90
2018-01-14T17:48:46.268Z,1.90
2018-01-14T17:51:13.497Z,2.00
2018-01-14T17:53:40.067Z,1.90
2018-01-14T17:56:07.361Z,1.80
2018-01-14T17:58:34.211Z,2.00
2018-01-14T18:01:01.066Z,2.00
2018-01-14T18:03:28.578Z,1.90
2018-01-14T18:05:55.390Z,1.90
2018-01-14T18:08:22.896Z,1.70
2018-01-14T18:10:49.310Z,1.70
2018-01-14T18:13:15.777Z,1.70
2018-01-14T18:15:42.439Z,1.80
2018-01-14T18:18:08.909Z,1.70
2018-01-14T18:20:35.354Z,1.80
2018-01-14T18:23:01.845Z,1.70
2018-01-14T18:25:28.347Z,1.60
2018-01-14T18:27:56.328Z,1.50
2018-01-14T18:30:23.106Z,1.60
2018-01-14T18:32:50.281Z,1.50
2018-01-14T18:35:17.567Z,1.40
2018-01-14T18:37:44.388Z,1.30
2018-01-14T18:40:11.619Z,1.30
2018-01-14T18:42:38.410Z,1.20
2018-01-14T18:45:05.961Z,1.20
2018-01-14T18:47:33.454Z,1.20
2018-01-14T18:50:00.014Z,1.20
2018-01-14T18:52:26.614Z,1.30
2018-01-14T18:54:53.113Z,1.20
2018-01-14T18:57:19.581Z,1.20
2018-01-14T18:59:46.069Z,1.30
2018-01-14T19:02:12.477Z,1.30
2018-01-14T19:04:38.972Z,1.40
2018-01-14T19:07:05.636Z,1.40
2018-01-14T19:09:32.142Z,1.60
2018-01-14T19:11:58.655Z,1.60
2018-01-14T19:14:25.137Z,1.60
2018-01-14T19:16:51.688Z,1.50
2018-01-14T19:19:18.339Z,1.70
2018-01-14T19:21:44.819Z,1.70
2018-01-14T19:24:11.296Z,1.60
2018-01-14T19:26:37.771Z,1.60
2018-01-14T19:29:04.769Z,1.40
2018-01-14T19:31:31.269Z,1.40
2018-01-14T19:33:57.666Z,1.40
2018-01-14T19:36:24.231Z,1.40
2018-01-14T19:38:50.710Z,1.40
2018-01-14T19:41:17.311Z,1.50
2018-01-14T19:43:44.184Z,1.40
2018-01-14T19:46:10.681Z,1.50
2018-01-14T19:48:37.148Z,1.50
2018-01-14T19:51:05.014Z,1.60
2018-01-14T19:53:32.568Z,1.40
2018-01-14T19:55:59.013Z,1.40
2018-01-14T19:58:26.238Z,1.50
2018-01-14T20:00:52.749Z,1.40
2018-01-14T20:03:20.021Z,1.40
2018-01-14T20:05:46.624Z,1.30
2018-01-14T20:08:13.173Z,1.30
2018-01-14T20:10:39.815Z,1.20
2018-01-14T20:13:06.348Z,1.20
2018-01-14T20:15:32.869Z,1.20
2018-01-14T20:17:59.330Z,1.10
2018-01-14T20:20:25.865Z,1.00
2018-01-14T20:22:52.325Z,1.10
2018-01-14T20:25:18.872Z,1.00
2018-01-14T20:27:45.518Z,1.10
2018-01-14T20:30:11.990Z,1.10
2018-01-14T20:32:38.420Z,1.10
2018-01-14T20:35:05.471Z,1.50
2018-01-14T20:37:32.776Z,1.10
2018-01-14T20:39:59.277Z,1.10
2018-01-14T20:42:26.613Z,1.20
2018-01-14T20:44:54.160Z,1.10
2018-01-14T20:47:21.514Z,1.10
2018-01-14T20:49:47.982Z,1.10
2018-01-14T20:52:14.569Z,1.10
2018-01-14T20:54:41.045Z,1.10
2018-01-14T20:57:07.535Z,1.10
2018-01-14T20:59:34.068Z,1.00
2018-01-14T21:02:00.646Z,1.00
2018-01-14T21:04:27.161Z,0.90
2018-01-14T21:06:54.443Z,1.00
2018-01-14T21:09:20.928Z,1.00
2018-01-14T21:11:47.411Z,1.10
2018-01-14T21:14:14.621Z,1.10
2018-01-14T21:16:41.165Z,1.10
2018-01-14T21:19:07.675Z,1.80
2018-01-14T21:21:34.105Z,1.00
2018-01-14T21:24:00.561Z,1.00
2018-01-14T21:26:27.041Z,0.90
2018-01-14T21:28:54.022Z,0.70
2018-01-14T21:31:20.595Z,0.80
2018-01-14T21:33:47.781Z,0.90
2018-01-14T21:36:14.310Z,0.80
2018-01-14T21:38:40.826Z,1.10
2018-01-14T21:41:07.340Z,1.10
2018-01-14T21:43:34.214Z,1.10
2018-01-14T21:46:00.798Z,1.00
2018-01-14T21:48:27.336Z,1.00
2018-01-14T21:50:53.858Z,1.00
2018-01-14T21:53:21.125Z,1.00
2018-01-14T21:55:49.085Z,1.00
2018-01-14T21:58:16.303Z,1.00
2018-01-14T22:00:42.828Z,0.50
2018-01-14T22:03:09.651Z,1.00
2018-01-14T22:05:36.270Z,1.00
2018-01-14T22:08:03.154Z,1.10
2018-01-14T22:10:29.871Z,1.10
2018-01-14T22:12:56.286Z,1.20
2018-01-14T22:15:22.773Z,1.20
2018-01-14T22:17:49.536Z,1.20
2018-01-14T22:20:16.076Z,1.20
2018-01-14T22:22:42.629Z,1.10
2018-01-14T22:25:09.181Z,1.10
2018-01-14T22:27:37.215Z,0.90
2018-01-14T22:30:04.326Z,1.00
2018-01-14T22:32:31.584Z,1.10
2018-01-14T22:34:58.813Z,1.10
2018-01-14T22:37:25.249Z,1.10
2018-01-14T22:39:51.723Z,1.20
2018-01-14T22:42:18.729Z,1.20
2018-01-14T22:44:45.177Z,1.10
2018-01-14T22:47:11.661Z,1.20
2018-01-14T22:49:38.900Z,1.00
2018-01-14T22:52:05.886Z,1.00
2018-01-14T22:54:33.227Z,0.90
2018-01-14T22:56:59.673Z,0.80
2018-01-14T22:59:26.151Z,0.90
2018-01-14T23:01:52.633Z,0.90
2018-01-14T23:04:19.082Z,0.80
2018-01-14T23:06:45.629Z,0.80
2018-01-14T23:09:12.041Z,0.80
2018-01-14T23:11:38.470Z,0.80
2018-01-14T23:14:05.618Z,0.80
2018-01-14T23:16:32.209Z,0.90
2018-01-14T23:18:58.677Z,0.80
2018-01-14T23:21:25.281Z,0.90
2018-01-14T23:23:52.462Z,0.90
2018-01-14T23:26:18.914Z,0.90
2018-01-14T23:28:46.148Z,1.00
2018-01-14T23:31:12.830Z,1.00
2018-01-14T23:33:39.274Z,1.10
2018-01-14T23:36:06.490Z,1.20
2018-01-14T23:38:32.948Z,1.40
2018-01-14T23:40:59.378Z,1.40
2018-01-14T23:43:25.773Z,1.40
2018-01-14T23:45:53.014Z,1.20
2018-01-14T23:48:19.475Z,1.20
2018-01-14T23:50:46.691Z,1.10
2018-01-14T23:53:13.080Z,1.10
2018-01-14T23:55:40.237Z,1.10
2018-01-14T23:58:07.509Z,1.00
